createdAt,value
2023-03-21T00:01:55.006Z,3.28
2023-03-21T00:04:24.809Z,3.30
2023-03-21T00:06:51.989Z,3.28
2023-03-21T00:09:21.370Z,3.60
2023-03-21T00:11:48.765Z,3.20
2023-03-21T00:14:20.589Z,3.55
2023-03-21T00:16:51.862Z,2.78
2023-03-21T00:19:21.172Z,3.65
2023-03-21T00:22:06.574Z,3.38
2023-03-21T00:24:36.262Z,3.47
2023-03-21T00:27:29.734Z,3.40
2023-03-21T00:29:51.229Z,3.30
2023-03-21T00:32:20.021Z,3.70
2023-03-21T00:35:01.370Z,3.15
2023-03-21T00:37:30.168Z,3.15
2023-03-21T00:39:57.330Z,3.50
2023-03-21T00:42:24.560Z,3.50
2023-03-21T00:44:51.741Z,3.80
2023-03-21T00:47:18.886Z,3.42
2023-03-21T00:49:46.158Z,2.60
2023-03-21T00:52:18.559Z,2.30
2023-03-21T00:54:52.255Z,2.88
2023-03-21T00:57:37.476Z,2.67
2023-03-21T01:00:08.086Z,3.15
2023-03-21T01:02:38.417Z,2.83
2023-03-21T01:05:06.068Z,2.58
2023-03-21T01:07:33.246Z,2.83
2023-03-21T01:10:00.678Z,2.85
2023-03-21T01:12:29.017Z,3.15
2023-03-21T01:14:56.171Z,2.80
2023-03-21T01:17:23.390Z,2.95
2023-03-21T01:19:52.403Z,3.05
2023-03-21T01:22:20.357Z,3.25
2023-03-21T01:24:54.177Z,3.20
2023-03-21T01:27:22.838Z,2.88
2023-03-21T01:29:49.976Z,2.80
2023-03-21T01:32:17.193Z,2.95
2023-03-21T01:34:44.584Z,2.70
2023-03-21T01:37:11.797Z,3.00
2023-03-21T01:39:46.047Z,3.38
2023-03-21T01:42:14.760Z,3.17
2023-03-21T01:44:58.415Z,3.20
2023-03-21T01:47:33.513Z,3.47
2023-03-21T01:50:22.426Z,3.00
2023-03-21T01:53:08.239Z,3.20
2023-03-21T01:55:37.663Z,3.20
2023-03-21T01:58:28.117Z,2.83
2023-03-21T02:01:23.423Z,3.15
2023-03-21T02:03:54.930Z,3.10
2023-03-21T02:06:49.846Z,3.10
2023-03-21T02:09:47.721Z,3.10
2023-03-21T02:12:19.866Z,3.15
2023-03-21T02:14:53.397Z,2.80
2023-03-21T02:17:47.994Z,3.20
2023-03-21T02:20:51.458Z,3.00
2023-03-21T02:23:49.101Z,2.40
2023-03-21T02:27:03.447Z,2.97
2023-03-21T02:29:59.576Z,2.25
2023-03-21T02:32:41.910Z,2.47
2023-03-21T02:35:54.455Z,2.35
2023-03-21T02:38:31.026Z,2.30
2023-03-21T02:41:17.986Z,2.20
2023-03-21T02:44:06.718Z,2.63
2023-03-21T02:46:59.726Z,2.22
2023-03-21T02:49:48.688Z,2.25
2023-03-21T02:52:37.315Z,2.13
2023-03-21T02:55:14.495Z,3.13
2023-03-21T02:57:53.312Z,3.42
2023-03-21T03:00:24.816Z,2.75
2023-03-21T03:03:06.266Z,3.20
2023-03-21T03:05:38.004Z,3.40
2023-03-21T03:08:17.557Z,2.90
2023-03-21T03:10:56.887Z,3.25
2023-03-21T03:13:42.732Z,3.10
2023-03-21T03:16:48.242Z,3.22
2023-03-21T03:19:27.824Z,2.90
2023-03-21T03:22:14.198Z,3.30
2023-03-21T03:24:54.058Z,2.60
2023-03-21T03:27:37.970Z,3.35
2023-03-21T03:30:08.156Z,3.15
2023-03-21T03:32:45.290Z,3.40
2023-03-21T03:35:17.737Z,3.42
2023-03-21T03:40:37.631Z,3.50
2023-03-21T03:43:20.177Z,3.28
2023-03-21T03:45:54.134Z,3.55
2023-03-21T03:48:27.097Z,3.13
2023-03-21T03:51:04.279Z,2.80
2023-03-21T03:53:57.638Z,2.67
2023-03-21T03:56:29.447Z,2.72
2023-03-21T03:58:58.235Z,3.22
2023-03-21T04:01:42.129Z,3.80
2023-03-21T04:04:13.383Z,3.60
2023-03-21T04:06:42.168Z,2.85
2023-03-21T04:09:19.256Z,3.78
2023-03-21T04:11:48.675Z,4.00
2023-03-21T04:14:15.930Z,3.83
2023-03-21T04:16:45.263Z,3.85
2023-03-21T04:19:12.759Z,4.28
2023-03-21T04:21:40.046Z,3.78
2023-03-21T04:24:07.764Z,4.13
2023-03-21T04:26:36.184Z,2.90
2023-03-21T04:29:34.633Z,3.50
2023-03-21T04:32:24.981Z,4.30
2023-03-21T04:35:01.813Z,4.10
2023-03-21T04:37:33.971Z,4.07
2023-03-21T04:40:07.847Z,3.75
2023-03-21T04:42:35.681Z,3.70
2023-03-21T04:45:03.114Z,3.90
2023-03-21T04:47:30.431Z,4.30
2023-03-21T04:49:57.690Z,3.95
2023-03-21T04:52:25.563Z,4.20
2023-03-21T04:54:52.992Z,3.78
2023-03-21T04:57:20.841Z,3.88
2023-03-21T04:59:48.080Z,3.65
2023-03-21T05:02:16.025Z,4.22
2023-03-21T05:04:44.007Z,4.32
2023-03-21T05:07:11.358Z,3.88
2023-03-21T05:09:38.836Z,4.18
2023-03-21T05:12:06.133Z,4.35
2023-03-21T05:14:35.189Z,3.90
2023-03-21T05:17:05.655Z,3.63
2023-03-21T05:19:40.795Z,4.05
2023-03-21T05:22:12.546Z,4.28
2023-03-21T05:24:42.247Z,3.78
2023-03-21T05:27:36.206Z,4.15
2023-03-21T05:30:18.648Z,3.08
2023-03-21T05:32:48.476Z,3.55
2023-03-21T05:35:15.889Z,3.80
2023-03-21T05:37:43.231Z,4.15
2023-03-21T05:40:11.803Z,3.85
2023-03-21T05:45:23.247Z,3.00
2023-03-21T05:47:51.862Z,1.90
2023-03-21T05:50:22.902Z,2.75
2023-03-21T05:53:04.206Z,3.30
2023-03-21T05:55:31.469Z,3.22
2023-03-21T05:57:58.984Z,3.25
2023-03-21T06:00:30.570Z,3.67
2023-03-21T06:03:26.925Z,3.45
2023-03-21T06:05:59.165Z,2.50
2023-03-21T06:08:33.703Z,3.53
2023-03-21T06:11:01.350Z,3.53
2023-03-21T06:13:31.627Z,3.47
2023-03-21T06:15:59.329Z,3.53
2023-03-21T06:18:28.685Z,4.03
2023-03-21T06:21:14.375Z,3.92
2023-03-21T06:23:42.376Z,3.28
2023-03-21T06:26:11.408Z,3.55
2023-03-21T06:28:38.858Z,3.85
2023-03-21T06:31:07.590Z,3.53
2023-03-21T06:33:34.837Z,3.08
2023-03-21T06:36:02.297Z,2.92
2023-03-21T06:38:29.964Z,3.30
2023-03-21T06:40:57.693Z,2.90
2023-03-21T06:43:27.353Z,4.32
2023-03-21T06:45:55.360Z,3.45
2023-03-21T06:48:22.681Z,3.08
2023-03-21T06:50:52.529Z,3.05
2023-03-21T06:53:30.313Z,3.40
2023-03-21T06:56:17.045Z,4.28
2023-03-21T06:58:45.913Z,4.00
2023-03-21T07:01:27.846Z,4.82
2023-03-21T07:04:03.134Z,3.75
2023-03-21T07:06:31.281Z,3.28
2023-03-21T07:08:59.555Z,4.22
2023-03-21T07:11:27.025Z,3.90
2023-03-21T07:13:54.689Z,3.90
2023-03-21T07:16:25.462Z,4.45
2023-03-21T07:18:52.895Z,4.43
2023-03-21T07:21:20.374Z,4.45
2023-03-21T07:23:47.811Z,4.15
2023-03-21T07:26:18.820Z,4.38
2023-03-21T07:28:46.054Z,3.78
2023-03-21T07:31:16.713Z,4.13
2023-03-21T07:33:44.167Z,4.00
2023-03-21T07:36:15.610Z,4.00
2023-03-21T07:38:44.853Z,3.85
2023-03-21T07:41:13.193Z,3.70
2023-03-21T07:43:40.711Z,4.03
2023-03-21T07:46:10.790Z,4.13
2023-03-21T07:48:38.340Z,3.97
2023-03-21T07:51:07.297Z,4.05
2023-03-21T07:53:36.369Z,4.40
2023-03-21T07:56:04.391Z,4.25
2023-03-21T07:58:34.615Z,4.00
2023-03-21T08:01:02.598Z,4.60
2023-03-21T08:03:31.219Z,4.28
2023-03-21T08:06:01.665Z,4.35
2023-03-21T08:08:28.746Z,4.03
2023-03-21T08:10:56.056Z,4.07
2023-03-21T08:13:23.326Z,4.50
2023-03-21T08:15:50.587Z,4.50
2023-03-21T08:18:17.666Z,4.13
2023-03-21T08:20:44.886Z,4.40
2023-03-21T08:23:12.034Z,4.38
2023-03-21T08:25:39.560Z,4.80
2023-03-21T08:28:06.807Z,4.80
2023-03-21T08:30:34.071Z,5.13
2023-03-21T08:33:02.222Z,4.82
2023-03-21T08:35:30.532Z,4.80
2023-03-21T08:37:58.258Z,5.22
2023-03-21T08:40:26.178Z,4.28
2023-03-21T08:42:53.447Z,4.50
2023-03-21T08:45:20.822Z,4.35
2023-03-21T08:47:48.078Z,4.88
2023-03-21T08:50:19.766Z,4.72
2023-03-21T08:52:47.680Z,3.70
2023-03-21T08:55:17.271Z,5.00
2023-03-21T08:57:45.432Z,4.60
2023-03-21T09:00:18.477Z,4.38
2023-03-21T09:02:48.906Z,3.65
2023-03-21T09:05:17.217Z,4.65
2023-03-21T09:07:45.840Z,4.50
2023-03-21T09:10:22.185Z,4.70
2023-03-21T09:12:51.813Z,4.28
2023-03-21T09:15:22.283Z,3.30
2023-03-21T09:17:53.367Z,3.35
2023-03-21T09:20:31.500Z,3.40
2023-03-21T09:22:59.989Z,3.67
2023-03-21T09:25:31.844Z,3.83
2023-03-21T09:28:00.831Z,3.20
2023-03-21T09:30:28.948Z,3.80
2023-03-21T09:32:56.310Z,3.97
2023-03-21T09:35:25.173Z,3.53
2023-03-21T09:37:52.589Z,3.42
2023-03-21T09:40:31.508Z,4.13
2023-03-21T09:43:34.488Z,4.13
2023-03-21T09:46:32.079Z,4.22
2023-03-21T09:49:22.347Z,4.32
2023-03-21T09:51:54.631Z,4.20
2023-03-21T09:54:33.401Z,3.97
2023-03-21T09:57:12.093Z,3.58
2023-03-21T09:59:43.071Z,4.30
2023-03-21T10:02:39.728Z,4.13
2023-03-21T10:05:32.391Z,4.68
2023-03-21T10:08:19.682Z,4.47
2023-03-21T10:10:52.422Z,4.00
2023-03-21T10:13:35.852Z,4.45
2023-03-21T10:16:14.888Z,4.30
2023-03-21T10:18:44.040Z,4.32
2023-03-21T10:21:47.573Z,4.28
2023-03-21T10:24:20.869Z,3.88
2023-03-21T10:26:49.540Z,3.60
2023-03-21T10:29:29.616Z,3.80
2023-03-21T10:31:59.265Z,3.93
2023-03-21T10:34:38.345Z,4.15
2023-03-21T10:37:06.536Z,3.78
2023-03-21T10:39:40.854Z,4.00
2023-03-21T10:42:18.890Z,3.83
2023-03-21T10:44:49.832Z,3.58
2023-03-21T10:47:27.233Z,4.72
2023-03-21T10:50:11.049Z,4.10
2023-03-21T10:52:51.714Z,3.90
2023-03-21T10:55:33.359Z,4.25
2023-03-21T10:58:08.654Z,4.22
2023-03-21T11:00:39.746Z,3.90
2023-03-21T11:03:08.506Z,3.97
2023-03-21T11:05:37.769Z,4.22
2023-03-21T11:08:12.005Z,4.18
2023-03-21T11:11:02.922Z,4.25
2023-03-21T11:13:42.099Z,3.90
2023-03-21T11:16:23.333Z,4.20
2023-03-21T11:18:57.104Z,4.40
2023-03-21T11:21:29.623Z,4.30
2023-03-21T11:23:57.592Z,3.95
2023-03-21T11:26:27.672Z,3.22
2023-03-21T11:28:56.060Z,3.22
2023-03-21T11:31:27.355Z,3.35
2023-03-21T11:33:57.267Z,2.90
2023-03-21T11:36:24.485Z,3.45
2023-03-21T11:39:03.059Z,3.30
2023-03-21T11:41:34.655Z,3.38
2023-03-21T11:44:02.833Z,3.83
2023-03-21T11:46:31.955Z,3.35
2023-03-21T11:49:01.713Z,3.20
2023-03-21T11:51:44.035Z,3.33
2023-03-21T11:54:22.288Z,3.20
2023-03-21T11:56:53.417Z,3.58
2023-03-21T11:59:39.372Z,3.47
2023-03-21T12:02:56.058Z,3.70
2023-03-21T12:05:27.556Z,3.35
2023-03-21T12:08:06.825Z,3.30
2023-03-21T12:10:49.243Z,3.40
2023-03-21T12:13:35.052Z,3.65
2023-03-21T12:16:19.612Z,3.72
2023-03-21T12:19:11.422Z,3.25
2023-03-21T12:21:53.922Z,3.72
2023-03-21T12:24:55.502Z,3.60
2023-03-21T12:27:37.862Z,3.55
2023-03-21T12:30:13.979Z,3.88
2023-03-21T12:33:08.244Z,3.55
2023-03-21T12:35:55.399Z,3.20
2023-03-21T12:39:03.955Z,3.03
2023-03-21T12:41:38.059Z,3.30
2023-03-21T12:44:12.774Z,3.10
2023-03-21T12:46:49.450Z,3.00
2023-03-21T12:49:31.584Z,2.70
2023-03-21T12:52:27.254Z,2.55
2023-03-21T12:55:02.778Z,2.90
2023-03-21T12:57:35.638Z,2.85
2023-03-21T13:00:26.118Z,2.88
2023-03-21T13:03:00.543Z,3.38
2023-03-21T13:05:42.919Z,3.10
2023-03-21T13:08:15.058Z,3.25
2023-03-21T13:10:44.909Z,3.05
2023-03-21T13:13:43.224Z,2.45
2023-03-21T13:16:31.018Z,3.08
2023-03-21T13:19:16.373Z,3.15
2023-03-21T13:22:01.536Z,2.95
2023-03-21T13:24:33.053Z,2.88
2023-03-21T13:27:21.755Z,3.13
2023-03-21T13:29:51.986Z,2.75
2023-03-21T13:32:41.112Z,2.97
2023-03-21T13:35:27.875Z,3.20
2023-03-21T13:38:19.954Z,2.78
2023-03-21T13:41:20.656Z,2.85
2023-03-21T13:44:06.130Z,2.60
2023-03-21T13:46:54.921Z,2.50
2023-03-21T13:49:38.590Z,2.63
2023-03-21T13:52:12.410Z,3.30
2023-03-21T13:54:39.503Z,3.10
2023-03-21T13:57:07.240Z,3.85
2023-03-21T13:59:43.425Z,4.00
2023-03-21T14:02:13.444Z,3.15
2023-03-21T14:05:00.188Z,2.40
2023-03-21T14:08:06.027Z,2.40
2023-03-21T14:10:42.480Z,2.10
2023-03-21T14:13:16.550Z,2.47
2023-03-21T14:15:55.190Z,2.70
2023-03-21T14:18:52.366Z,2.58
2023-03-21T14:21:31.524Z,2.67
2023-03-21T14:24:05.215Z,2.30
2023-03-21T14:26:44.736Z,2.72
2023-03-21T14:29:26.080Z,3.25
2023-03-21T14:31:56.607Z,3.40
2023-03-21T14:34:27.441Z,3.13
2023-03-21T14:36:58.591Z,2.85
2023-03-21T14:39:31.590Z,3.10
2023-03-21T14:44:55.387Z,2.80
2023-03-21T14:47:29.017Z,2.30
2023-03-21T14:49:58.244Z,2.55
2023-03-21T14:52:32.882Z,2.17
2023-03-21T14:55:13.416Z,3.17
2023-03-21T14:57:40.927Z,2.70
2023-03-21T15:00:23.449Z,3.10
2023-03-21T15:02:52.493Z,2.80
2023-03-21T15:05:26.294Z,2.20
2023-03-21T15:08:02.414Z,2.70
2023-03-21T15:10:32.089Z,3.33
2023-03-21T15:13:02.905Z,3.00
2023-03-21T15:15:32.449Z,3.00
2023-03-21T15:18:05.609Z,2.85
2023-03-21T15:20:35.855Z,2.63
2023-03-21T15:23:09.746Z,2.85
2023-03-21T15:25:37.906Z,3.10
2023-03-21T15:28:06.645Z,3.25
2023-03-21T15:30:34.818Z,2.92
2023-03-21T15:33:13.230Z,3.00
2023-03-21T15:35:46.310Z,3.15
2023-03-21T15:38:40.267Z,3.40
2023-03-21T15:41:34.166Z,2.90
2023-03-21T15:44:03.282Z,3.38
2023-03-21T15:46:48.595Z,3.88
2023-03-21T15:49:16.332Z,3.80
2023-03-21T15:51:54.193Z,3.47
2023-03-21T15:54:44.582Z,3.50
2023-03-21T15:57:25.171Z,3.30
2023-03-21T15:59:59.228Z,3.40
2023-03-21T16:02:31.221Z,3.30
2023-03-21T16:05:24.178Z,3.60
2023-03-21T16:07:51.505Z,3.28
2023-03-21T16:10:30.404Z,3.42
2023-03-21T16:12:58.525Z,3.65
2023-03-21T16:15:27.304Z,3.28
2023-03-21T16:18:00.156Z,3.38
2023-03-21T16:20:32.922Z,3.63
2023-03-21T16:23:01.509Z,3.38
2023-03-21T16:25:30.925Z,3.90
2023-03-21T16:27:58.438Z,3.67
2023-03-21T16:30:26.531Z,3.60
2023-03-21T16:32:53.862Z,4.13
2023-03-21T16:35:23.581Z,3.25
2023-03-21T16:37:51.082Z,3.42
2023-03-21T16:40:23.441Z,3.83
2023-03-21T16:42:50.912Z,3.75
2023-03-21T16:45:18.257Z,4.13
2023-03-21T16:47:45.790Z,3.03
2023-03-21T16:50:34.367Z,3.33
2023-03-21T16:53:02.420Z,3.30
2023-03-21T16:55:33.188Z,3.05
2023-03-21T16:58:00.718Z,2.92
2023-03-21T17:00:29.518Z,3.17
2023-03-21T17:03:01.560Z,3.50
2023-03-21T17:05:33.130Z,3.33
2023-03-21T17:08:02.882Z,2.90
2023-03-21T17:10:31.828Z,2.95
2023-03-21T17:12:59.460Z,3.38
2023-03-21T17:15:26.736Z,2.80
2023-03-21T17:17:55.956Z,3.05
2023-03-21T17:20:26.561Z,3.10
2023-03-21T17:22:53.831Z,2.95
2023-03-21T17:25:21.080Z,3.10
2023-03-21T17:27:49.075Z,2.80
2023-03-21T17:30:31.640Z,2.80
2023-03-21T17:32:59.207Z,2.83
2023-03-21T17:35:27.545Z,3.20
2023-03-21T17:37:58.665Z,2.97
2023-03-21T17:40:29.982Z,3.25
2023-03-21T17:43:01.340Z,3.60
2023-03-21T17:45:28.652Z,3.88
2023-03-21T17:47:56.166Z,3.60
2023-03-21T17:50:27.527Z,3.22
2023-03-21T17:52:57.669Z,3.33
2023-03-21T17:55:25.240Z,3.45
2023-03-21T17:57:52.751Z,2.75
2023-03-21T18:00:24.068Z,3.03
2023-03-21T18:02:51.729Z,3.30
2023-03-21T18:05:21.789Z,2.95
2023-03-21T18:08:09.757Z,2.97
2023-03-21T18:10:38.890Z,2.90
2023-03-21T18:13:06.452Z,2.90
2023-03-21T18:15:35.922Z,3.70
2023-03-21T18:18:05.152Z,2.92
2023-03-21T18:20:51.262Z,2.15
2023-03-21T18:23:19.530Z,2.33
2023-03-21T18:25:47.150Z,2.70
2023-03-21T18:28:17.628Z,2.63
2023-03-21T18:33:40.746Z,2.55
2023-03-21T18:36:09.874Z,2.53
2023-03-21T18:38:38.135Z,2.85
2023-03-21T18:41:08.168Z,3.25
2023-03-21T18:46:24.549Z,4.80
2023-03-21T18:48:52.017Z,4.53
2023-03-21T18:51:19.627Z,4.03
2023-03-21T18:53:46.847Z,4.00
2023-03-21T18:56:57.707Z,3.33
2023-03-21T18:59:02.224Z,3.33
2023-03-21T19:01:29.511Z,4.10
2023-03-21T19:06:47.826Z,3.20
2023-03-21T19:09:15.491Z,3.70
2023-03-21T19:11:43.030Z,3.80
2023-03-21T19:14:11.975Z,3.90
2023-03-21T19:17:07.188Z,4.03
2023-03-21T19:19:27.957Z,3.88
2023-03-21T19:21:55.871Z,4.40
2023-03-21T19:24:28.162Z,4.60
2023-03-21T19:26:56.205Z,4.00
2023-03-21T19:29:23.600Z,3.97
2023-03-21T19:31:52.097Z,3.50
2023-03-21T19:34:19.848Z,2.88
2023-03-21T19:36:51.486Z,3.10
2023-03-21T19:39:23.000Z,3.70
2023-03-21T19:41:51.735Z,3.13
2023-03-21T19:44:22.167Z,2.95
2023-03-21T19:46:51.656Z,3.40
2023-03-21T19:49:22.284Z,4.20
2023-03-21T19:51:49.846Z,3.60
2023-03-21T19:54:19.895Z,4.28
2023-03-21T19:56:48.272Z,3.80
2023-03-21T19:59:15.741Z,3.53
2023-03-21T20:01:43.712Z,2.78
2023-03-21T20:04:11.657Z,3.78
2023-03-21T20:06:38.898Z,3.70
2023-03-21T20:09:50.150Z,3.53
2023-03-21T20:11:54.183Z,3.83
2023-03-21T20:14:21.538Z,3.83
2023-03-21T20:16:48.793Z,4.63
2023-03-21T20:19:16.485Z,4.65
2023-03-21T20:21:49.671Z,4.10
2023-03-21T20:24:19.540Z,3.80
2023-03-21T20:26:47.315Z,3.70
2023-03-21T20:32:01.776Z,4.88
2023-03-21T20:34:30.524Z,5.13
2023-03-21T20:36:58.774Z,5.03
2023-03-21T20:39:28.624Z,4.60
2023-03-21T20:41:58.918Z,4.20
2023-03-21T20:44:57.940Z,4.90
2023-03-21T20:47:14.805Z,4.32
2023-03-21T20:49:42.176Z,3.00
2023-03-21T20:55:00.654Z,3.60
2023-03-21T20:57:28.335Z,4.90
2023-03-21T20:59:56.572Z,5.03
2023-03-21T21:02:24.765Z,5.38
2023-03-21T21:05:23.764Z,4.43
2023-03-21T21:07:43.174Z,5.53
2023-03-21T21:10:14.163Z,5.47
2023-03-21T21:12:45.290Z,5.28
2023-03-21T21:15:15.182Z,5.55
2023-03-21T21:20:30.340Z,5.40
2023-03-21T21:23:00.072Z,5.50
2023-03-21T21:25:29.572Z,5.32
2023-03-21T21:27:56.782Z,5.78
2023-03-21T21:30:24.175Z,5.10
2023-03-21T21:32:51.467Z,5.72
2023-03-21T21:35:20.109Z,5.30
2023-03-21T21:37:47.358Z,5.30
2023-03-21T21:40:18.552Z,5.22
2023-03-21T21:42:45.813Z,5.25
2023-03-21T21:45:13.789Z,5.05
2023-03-21T21:47:41.144Z,5.28
2023-03-21T21:50:09.304Z,5.50
2023-03-21T21:52:37.668Z,5.18
2023-03-21T21:55:06.759Z,4.82
2023-03-21T21:57:34.887Z,5.55
2023-03-21T22:00:06.781Z,5.03
2023-03-21T22:02:40.333Z,6.22
2023-03-21T22:05:09.351Z,6.03
2023-03-21T22:07:37.873Z,6.07
2023-03-21T22:10:07.139Z,5.30
2023-03-21T22:12:34.673Z,5.72
2023-03-21T22:15:02.133Z,5.60
2023-03-21T22:17:29.475Z,5.85
2023-03-21T22:20:05.562Z,5.75
2023-03-21T22:22:37.471Z,5.82
2023-03-21T22:25:07.955Z,5.80
2023-03-21T22:27:35.816Z,5.78
2023-03-21T22:30:04.790Z,5.90
2023-03-21T22:32:32.747Z,6.32
2023-03-21T22:35:02.649Z,6.53
2023-03-21T22:37:34.960Z,6.10
2023-03-21T22:40:02.703Z,6.28
2023-03-21T22:42:29.890Z,6.95
2023-03-21T22:44:57.231Z,6.40
2023-03-21T22:47:24.540Z,5.85
2023-03-21T22:49:52.546Z,6.68
2023-03-21T22:52:19.843Z,6.78
2023-03-21T22:54:48.163Z,6.88
2023-03-21T22:57:16.324Z,6.40
2023-03-21T22:59:43.769Z,6.57
2023-03-21T23:02:11.144Z,6.95
2023-03-21T23:04:39.196Z,6.70
2023-03-21T23:07:07.086Z,6.75
2023-03-21T23:09:34.627Z,7.13
2023-03-21T23:12:01.951Z,6.95
2023-03-21T23:14:29.271Z,5.57
2023-03-21T23:17:00.404Z,6.30
2023-03-21T23:19:29.287Z,6.90
2023-03-21T23:21:57.103Z,6.60
2023-03-21T23:24:24.582Z,5.97
2023-03-21T23:26:51.947Z,6.10
2023-03-21T23:29:19.263Z,7.35
2023-03-21T23:31:46.805Z,7.03
2023-03-21T23:34:14.550Z,7.05
2023-03-21T23:36:42.321Z,6.53
2023-03-21T23:39:09.934Z,6.55
2023-03-21T23:41:37.353Z,6.43
2023-03-21T23:44:04.817Z,6.18
2023-03-21T23:46:32.266Z,6.20
2023-03-21T23:49:26.292Z,6.68
2023-03-21T23:51:55.579Z,6.00
2023-03-21T23:54:22.732Z,6.38
2023-03-21T23:56:49.744Z,6.68
2023-03-21T23:59:16.797Z,6.68
